Time;durP1;ratioP1;P1;durP2;ratioP2;P2;SDS_P1;SDS_P2;PMS_P1;PMS_P2;Temp;Humidity;BMP_temperature;BMP_pressure;BME280_temperature;BME280_humidity;BME280_pressure;Samples;Min_cycle;Max_cycle;Signal;HPM_P1;HPM_P2
2021/03/03 00:00:01;;;;;;;19.88;12.63;;;4.00;99.90;;;;;;5093840;28;20689;-88
2021/03/03 00:02:28;;;;;;;22.63;12.73;;;4.00;99.90;;;;;;5093269;28;20345;-88
2021/03/03 00:04:54;;;;;;;21.05;11.80;;;4.00;99.90;;;;;;5093043;28;20616;-87
2021/03/03 00:07:21;;;;;;;20.05;12.27;;;3.90;99.90;;;;;;5093275;28;20307;-88
2021/03/03 00:09:47;;;;;;;22.48;11.88;;;3.80;99.90;;;;;;5093320;28;20209;-87
2021/03/03 00:12:13;;;;;;;17.35;11.98;;;3.80;99.90;;;;;;5092115;28;20327;-88
2021/03/03 00:14:42;;;;;;;26.33;11.63;;;3.80;99.90;;;;;;5111413;28;20283;-88
2021/03/03 00:17:09;;;;;;;17.55;12.32;;;3.80;99.90;;;;;;5117202;28;20208;-88
2021/03/03 00:19:36;;;;;;;17.83;11.25;;;3.80;99.90;;;;;;5060277;28;20207;-88
2021/03/03 00:22:02;;;;;;;16.83;12.15;;;3.80;99.90;;;;;;5097032;28;20209;-88
2021/03/03 00:24:29;;;;;;;18.30;11.90;;;3.80;99.90;;;;;;5096645;28;20299;-88
2021/03/03 00:26:55;;;;;;;24.50;12.15;;;3.80;99.90;;;;;;5093680;28;20220;-88
2021/03/03 00:29:22;;;;;;;22.42;14.25;;;3.70;99.90;;;;;;5095731;28;20638;-87
2021/03/03 00:31:48;;;;;;;21.58;13.13;;;3.60;99.90;;;;;;5096398;28;20729;-88
2021/03/03 00:34:14;;;;;;;20.13;12.88;;;3.50;99.90;;;;;;5053625;28;20305;-89
2021/03/03 00:36:42;;;;;;;18.70;13.27;;;3.50;99.90;;;;;;5054211;28;20324;-88
2021/03/03 00:39:08;;;;;;;22.77;13.60;;;3.40;99.90;;;;;;5053832;28;20351;-88
2021/03/03 00:41:34;;;;;;;27.90;13.98;;;3.30;99.90;;;;;;5053948;28;20864;-88
2021/03/03 00:44:01;;;;;;;21.85;12.38;;;3.40;99.90;;;;;;5053179;28;20203;-88
2021/03/03 00:46:27;;;;;;;24.75;14.68;;;3.40;99.90;;;;;;5053952;28;20206;-88
2021/03/03 00:48:54;;;;;;;18.85;12.30;;;3.40;99.90;;;;;;5060709;28;20265;-87
2021/03/03 00:51:20;;;;;;;17.33;11.43;;;3.50;99.90;;;;;;5076784;28;20324;-87
2021/03/03 00:53:49;;;;;;;18.65;13.13;;;3.60;99.90;;;;;;5116362;28;20231;-88
2021/03/03 00:56:16;;;;;;;22.27;12.43;;;3.70;99.90;;;;;;5116224;28;20292;-88
2021/03/03 00:58:42;;;;;;;23.08;13.48;;;3.80;99.90;;;;;;5114976;28;20200;-86
2021/03/03 01:01:08;;;;;;;19.48;11.27;;;3.80;99.90;;;;;;5116107;28;20264;-89
2021/03/03 01:03:35;;;;;;;22.65;13.00;;;3.90;99.90;;;;;;5116407;28;20224;-87
2021/03/03 01:06:01;;;;;;;16.73;13.13;;;3.90;99.90;;;;;;5116105;28;20286;-84
2021/03/03 01:08:27;;;;;;;22.20;13.68;;;4.00;99.90;;;;;;5115971;28;20251;-86
2021/03/03 01:10:55;;;;;;;22.65;13.70;;;4.00;99.90;;;;;;5115816;28;20319;-86
2021/03/03 01:13:21;;;;;;;25.48;13.43;;;4.20;99.90;;;;;;5113675;28;20236;-86
2021/03/03 01:15:47;;;;;;;29.27;16.33;;;4.30;99.90;;;;;;5116005;28;20204;-86
2021/03/03 01:18:14;;;;;;;21.02;13.40;;;4.30;99.90;;;;;;5116153;28;20242;-86
2021/03/03 01:20:40;;;;;;;21.55;15.88;;;4.40;99.90;;;;;;5116588;28;20200;-87
2021/03/03 01:23:07;;;;;;;16.73;12.60;;;4.40;99.90;;;;;;5117108;28;20655;-86
2021/03/03 01:25:34;;;;;;;24.05;13.27;;;4.20;99.90;;;;;;5117350;28;20200;-86
2021/03/03 01:28:01;;;;;;;18.38;11.32;;;4.10;99.90;;;;;;5129103;28;20220;-87
2021/03/03 01:30:28;;;;;;;17.02;12.75;;;4.00;99.90;;;;;;5137329;28;20225;-86
2021/03/03 01:32:54;;;;;;;27.33;14.02;;;3.90;99.90;;;;;;5140931;27;20243;-86
2021/03/03 01:35:21;;;;;;;19.73;12.35;;;3.80;99.90;;;;;;5125170;28;20204;-86
2021/03/03 01:37:47;;;;;;;23.33;11.95;;;3.80;99.90;;;;;;5116306;28;20192;-87
2021/03/03 01:40:14;;;;;;;22.10;14.13;;;3.80;99.90;;;;;;5115747;28;20303;-87
2021/03/03 01:42:41;;;;;;;25.23;13.63;;;3.80;99.90;;;;;;5110454;28;20283;-87
2021/03/03 01:45:09;;;;;;;17.70;12.10;;;3.80;99.90;;;;;;5099766;28;20291;-87
2021/03/03 01:47:36;;;;;;;18.65;12.60;;;3.80;99.90;;;;;;5090745;28;20572;-87
2021/03/03 01:50:08;;;;;;;14.38;11.55;;;3.80;99.90;;;;;;5108133;28;20295;-87
2021/03/03 01:52:36;;;;;;;17.90;12.55;;;3.80;99.90;;;;;;5115357;28;20290;-87
2021/03/03 01:55:04;;;;;;;21.70;13.30;;;3.70;99.90;;;;;;5115678;28;20209;-85
2021/03/03 01:57:31;;;;;;;21.10;12.50;;;3.70;99.90;;;;;;5113257;28;20730;-87
2021/03/03 01:59:58;;;;;;;25.85;14.85;;;3.80;99.90;;;;;;5115535;28;20200;-88
2021/03/03 02:02:25;;;;;;;24.45;13.60;;;3.70;99.90;;;;;;5115631;28;20303;-88
2021/03/03 02:04:52;;;;;;;15.70;11.00;;;3.70;99.90;;;;;;5115125;28;20204;-87
2021/03/03 02:07:23;;;;;;;19.70;11.80;;;3.60;99.90;;;;;;5115205;28;20231;-87
2021/03/03 02:09:57;;;;;;;20.60;12.15;;;3.60;99.90;;;;;;5115011;28;20840;-88
2021/03/03 02:12:28;;;;;;;20.70;13.80;;;3.60;99.90;;;;;;5113522;28;20941;-88
2021/03/03 02:14:57;;;;;;;21.85;12.90;;;3.60;99.90;;;;;;5115446;28;20204;-88
2021/03/03 02:17:29;;;;;;;22.42;12.80;;;3.60;99.90;;;;;;5114810;28;20291;-87
2021/03/03 02:20:01;;;;;;;17.95;11.85;;;3.50;99.90;;;;;;5071665;28;20201;-88
2021/03/03 02:22:39;;;;;;;25.30;13.93;;;3.50;99.90;;;;;;5072032;28;20212;-89
2021/03/03 02:25:20;;;;;;;25.55;13.52;;;3.50;99.90;;;;;;5072205;28;20725;-89
2021/03/03 02:27:47;;;;;;;26.17;14.07;;;3.50;99.90;;;;;;5070322;28;20696;-88
2021/03/03 02:30:15;;;;;;;23.15;12.77;;;3.40;99.90;;;;;;5071689;28;20284;-89
2021/03/03 02:32:42;;;;;;;26.75;13.15;;;3.40;99.90;;;;;;5071804;28;20254;-88
2021/03/03 02:35:11;;;;;;;24.30;14.20;;;3.50;99.90;;;;;;5071841;28;20202;-88
2021/03/03 02:37:39;;;;;;;25.67;14.20;;;3.40;99.90;;;;;;5085550;28;20235;-88
2021/03/03 02:40:07;;;;;;;22.33;11.73;;;3.30;99.90;;;;;;5114361;28;20686;-89
2021/03/03 02:42:35;;;;;;;21.38;12.73;;;3.30;99.90;;;;;;5112756;28;20243;-89
2021/03/03 02:45:03;;;;;;;18.08;13.15;;;3.30;99.90;;;;;;5114346;28;20286;-88
2021/03/03 02:47:31;;;;;;;17.70;10.95;;;3.20;99.90;;;;;;5114207;28;20659;-88
2021/03/03 02:49:58;;;;;;;21.77;11.85;;;3.20;99.90;;;;;;5114266;28;20675;-88
2021/03/03 02:52:27;;;;;;;22.30;12.93;;;3.20;99.90;;;;;;5114129;28;20235;-88
2021/03/03 02:54:53;;;;;;;21.80;13.50;;;3.30;99.90;;;;;;5114404;28;20223;-88
2021/03/03 02:57:20;;;;;;;21.08;13.32;;;3.30;99.90;;;;;;5111443;28;20235;-87
2021/03/03 02:59:51;;;;;;;18.67;12.88;;;3.40;99.90;;;;;;5114100;28;20207;-88
2021/03/03 03:02:21;;;;;;;26.20;14.25;;;3.50;99.90;;;;;;5114123;28;20299;-88
2021/03/03 03:04:50;;;;;;;19.48;13.57;;;3.50;99.90;;;;;;5114290;28;20565;-88
2021/03/03 03:07:20;;;;;;;17.92;11.95;;;3.50;99.90;;;;;;5114666;28;20287;-89
2021/03/03 03:09:49;;;;;;;19.40;12.13;;;3.40;99.90;;;;;;5111034;28;20204;-88
2021/03/03 03:12:17;;;;;;;20.00;12.80;;;3.30;99.90;;;;;;5112173;28;20265;-89
2021/03/03 03:14:46;;;;;;;22.40;14.13;;;3.30;99.90;;;;;;5114635;28;20241;-89
2021/03/03 03:17:17;;;;;;;21.90;14.15;;;3.40;99.90;;;;;;5111639;28;20204;-88
2021/03/03 03:19:46;;;;;;;20.27;13.23;;;3.50;99.90;;;;;;5113702;28;20299;-87
2021/03/03 03:22:16;;;;;;;26.55;14.13;;;3.50;99.90;;;;;;5114815;28;20222;-88
2021/03/03 03:24:43;;;;;;;19.77;13.27;;;3.40;99.90;;;;;;5114664;28;20200;-88
2021/03/03 03:27:11;;;;;;;19.83;13.35;;;3.30;99.90;;;;;;5114091;28;20283;-90
2021/03/03 03:29:40;;;;;;;21.45;12.85;;;3.30;99.90;;;;;;5114025;28;20294;-88
2021/03/03 03:32:08;;;;;;;22.00;13.95;;;3.20;99.90;;;;;;5113456;28;20323;-87
2021/03/03 03:34:36;;;;;;;21.58;13.25;;;3.10;99.90;;;;;;5114274;28;20624;-87
2021/03/03 03:37:05;;;;;;;19.98;13.75;;;3.20;99.90;;;;;;5116155;28;20291;-87
2021/03/03 03:39:32;;;;;;;22.23;13.48;;;3.20;99.90;;;;;;5114631;28;20319;-87
2021/03/03 03:41:58;;;;;;;20.63;14.23;;;3.20;99.90;;;;;;5114479;28;20696;-87
2021/03/03 03:44:26;;;;;;;24.35;14.02;;;3.20;99.90;;;;;;5123031;28;20251;-86
2021/03/03 03:46:52;;;;;;;28.00;14.50;;;3.20;99.90;;;;;;5137252;28;20210;-88
2021/03/03 03:49:19;;;;;;;23.27;15.95;;;3.20;99.90;;;;;;5130184;28;20232;-88
2021/03/03 03:51:47;;;;;;;26.08;15.38;;;3.20;99.90;;;;;;5124983;28;20319;-87
2021/03/03 03:54:13;;;;;;;24.83;15.35;;;3.30;99.90;;;;;;5142874;28;20229;-87
2021/03/03 03:56:40;;;;;;;26.90;13.55;;;3.20;99.90;;;;;;5141992;28;20181;-86
2021/03/03 03:59:07;;;;;;;23.60;13.68;;;3.30;99.90;;;;;;5134500;28;20257;-86
2021/03/03 04:01:33;;;;;;;24.75;13.10;;;3.20;99.90;;;;;;5122183;28;20235;-87
2021/03/03 04:04:00;;;;;;;26.52;14.05;;;3.20;99.90;;;;;;5120847;28;20248;-88
2021/03/03 04:06:26;;;;;;;24.13;14.65;;;3.20;99.90;;;;;;5117969;28;20295;-87
2021/03/03 04:08:53;;;;;;;23.85;13.82;;;3.20;99.90;;;;;;5117386;28;20225;-87
2021/03/03 04:11:20;;;;;;;29.40;15.55;;;3.20;99.90;;;;;;5117140;28;20629;-87
2021/03/03 04:13:46;;;;;;;23.63;15.27;;;3.20;99.90;;;;;;5116627;28;20287;-88
2021/03/03 04:16:13;;;;;;;19.20;14.02;;;3.20;99.90;;;;;;5116991;28;20204;-87
2021/03/03 04:18:39;;;;;;;33.03;15.60;;;3.20;99.90;;;;;;5116440;28;20734;-88
2021/03/03 04:21:06;;;;;;;24.70;12.93;;;3.30;99.90;;;;;;5113463;28;20208;-89
2021/03/03 04:23:32;;;;;;;22.88;14.05;;;3.40;99.90;;;;;;5117153;28;20239;-87
2021/03/03 04:26:00;;;;;;;26.65;15.68;;;3.40;99.90;;;;;;5117237;28;20208;-87
2021/03/03 04:28:26;;;;;;;21.73;15.02;;;3.40;99.90;;;;;;5115650;28;20239;-88
2021/03/03 04:30:53;;;;;;;21.85;14.10;;;3.40;99.90;;;;;;5081212;28;20216;-85
2021/03/03 04:33:19;;;;;;;23.02;14.25;;;3.40;99.90;;;;;;5116891;28;20651;-87
2021/03/03 04:35:46;;;;;;;29.15;14.55;;;3.40;99.90;;;;;;5116790;28;20214;-86
2021/03/03 04:38:12;;;;;;;22.58;15.00;;;3.30;99.90;;;;;;5116799;28;20241;-86
2021/03/03 04:40:40;;;;;;;25.98;14.65;;;3.30;99.90;;;;;;5116610;28;20331;-85
2021/03/03 04:43:07;;;;;;;22.63;14.43;;;3.20;99.90;;;;;;5115921;28;20230;-85
2021/03/03 04:45:34;;;;;;;29.27;15.60;;;3.20;99.90;;;;;;5116806;28;20574;-86
2021/03/03 04:48:00;;;;;;;22.95;14.48;;;3.10;99.90;;;;;;5115731;28;20223;-86
2021/03/03 04:50:26;;;;;;;29.73;15.02;;;3.10;99.90;;;;;;5116459;28;20197;-85
2021/03/03 04:52:53;;;;;;;23.30;15.38;;;3.00;99.90;;;;;;5116328;28;20571;-86
2021/03/03 04:55:19;;;;;;;24.63;15.77;;;3.00;99.90;;;;;;5117886;28;20602;-86
2021/03/03 04:57:46;;;;;;;21.73;14.20;;;3.00;99.90;;;;;;5111921;28;20204;-86
2021/03/03 05:00:15;;;;;;;21.10;14.88;;;2.90;99.90;;;;;;5116455;28;20203;-86
2021/03/03 05:02:41;;;;;;;26.60;12.77;;;2.90;99.90;;;;;;5116220;28;20343;-86
2021/03/03 05:05:09;;;;;;;20.92;14.35;;;2.90;99.90;;;;;;5115968;28;20200;-86
2021/03/03 05:07:35;;;;;;;22.58;14.15;;;2.90;99.90;;;;;;5116184;28;20204;-86
2021/03/03 05:10:01;;;;;;;27.60;15.80;;;3.00;99.90;;;;;;5115911;28;20576;-85
2021/03/03 05:12:28;;;;;;;20.65;14.05;;;3.00;99.90;;;;;;5114601;28;20267;-85
2021/03/03 05:14:54;;;;;;;27.33;13.95;;;3.00;99.90;;;;;;5115883;28;20295;-86
2021/03/03 05:17:22;;;;;;;30.27;16.15;;;3.00;99.90;;;;;;5115880;28;20235;-85
2021/03/03 05:19:48;;;;;;;28.48;15.85;;;3.00;99.90;;;;;;5117451;27;20564;-85
2021/03/03 05:22:15;;;;;;;26.90;16.23;;;3.10;99.90;;;;;;5115828;28;20287;-86
2021/03/03 05:24:41;;;;;;;25.83;14.05;;;3.00;99.90;;;;;;5115702;28;20210;-85
2021/03/03 05:27:08;;;;;;;25.58;13.88;;;3.00;99.90;;;;;;5114799;28;20292;-86
2021/03/03 05:29:34;;;;;;;27.60;17.42;;;3.10;99.90;;;;;;5116067;28;20287;-86
2021/03/03 05:32:01;;;;;;;33.80;17.35;;;3.20;99.90;;;;;;5115485;28;20318;-86
2021/03/03 05:34:28;;;;;;;47.53;24.20;;;3.20;99.90;;;;;;5115262;28;20742;-86
2021/03/03 05:36:54;;;;;;;64.70;30.33;;;3.10;99.90;;;;;;5115796;28;20236;-86
2021/03/03 05:39:20;;;;;;;58.85;28.00;;;3.10;99.90;;;;;;5115609;28;20231;-86
2021/03/03 05:41:48;;;;;;;54.72;29.25;;;3.10;99.90;;;;;;5115572;28;20290;-86
2021/03/03 05:44:15;;;;;;;51.65;23.77;;;3.10;99.90;;;;;;5113950;28;20620;-85
2021/03/03 05:46:46;;;;;;;47.80;20.67;;;3.10;99.90;;;;;;5115075;28;20296;-85
2021/03/03 05:49:16;;;;;;;48.72;23.08;;;3.20;99.90;;;;;;5114806;28;20328;-85
2021/03/03 05:51:44;;;;;;;44.28;21.02;;;3.30;99.90;;;;;;5115785;28;20232;-85
2021/03/03 05:54:10;;;;;;;38.78;20.45;;;3.30;99.90;;;;;;5115614;28;20208;-85
2021/03/03 05:56:37;;;;;;;36.88;19.52;;;3.30;99.90;;;;;;5115410;28;20196;-85
2021/03/03 05:59:04;;;;;;;37.90;19.83;;;3.30;99.90;;;;;;5113064;28;20579;-85
2021/03/03 06:01:31;;;;;;;38.50;22.58;;;3.20;99.90;;;;;;5115220;28;20292;-85
2021/03/03 06:03:58;;;;;;;39.95;20.90;;;3.20;99.90;;;;;;5115330;28;20200;-86
2021/03/03 06:06:25;;;;;;;38.08;20.90;;;3.10;99.90;;;;;;5114944;28;20216;-86
2021/03/03 06:08:53;;;;;;;31.75;17.08;;;3.10;99.90;;;;;;5114916;28;20299;-84
2021/03/03 06:11:19;;;;;;;30.55;17.63;;;3.10;99.90;;;;;;5114016;28;20331;-84
2021/03/03 06:13:46;;;;;;;32.28;19.58;;;3.20;99.90;;;;;;5113140;28;20224;-84
2021/03/03 06:16:13;;;;;;;23.90;15.48;;;3.20;99.90;;;;;;5115067;28;20319;-84
2021/03/03 06:18:39;;;;;;;31.10;19.52;;;3.20;99.90;;;;;;5113885;28;20291;-84
2021/03/03 06:21:06;;;;;;;32.10;19.65;;;3.20;99.90;;;;;;5114663;28;20298;-85
2021/03/03 06:23:32;;;;;;;31.05;17.52;;;3.30;99.90;;;;;;5114369;28;20296;-83
2021/03/03 06:26:12;;;;;;;28.63;17.33;;;3.30;99.90;;;;;;5115058;28;20287;-85
2021/03/03 06:28:40;;;;;;;38.20;19.63;;;3.20;99.90;;;;;;5113109;28;20622;-84
2021/03/03 06:31:30;;;;;;;27.60;17.55;;;3.20;99.90;;;;;;5114530;28;20311;-84
2021/03/03 06:34:09;;;;;;;24.58;16.98;;;3.30;99.90;;;;;;5114299;28;20291;-84
2021/03/03 06:36:37;;;;;;;29.08;14.10;;;3.40;99.90;;;;;;5114402;28;20207;-85
2021/03/03 06:39:18;;;;;;;25.58;14.68;;;3.30;99.90;;;;;;5114471;28;20294;-84
2021/03/03 06:41:46;;;;;;;29.27;15.85;;;3.30;99.90;;;;;;5114099;28;20291;-83
2021/03/03 06:44:12;;;;;;;21.63;14.38;;;3.30;99.90;;;;;;5113180;28;20286;-84
2021/03/03 06:46:40;;;;;;;25.48;16.00;;;3.30;99.90;;;;;;5114425;28;20291;-84
2021/03/03 06:49:22;;;;;;;24.48;16.60;;;3.40;99.90;;;;;;5113836;28;20291;-84
2021/03/03 06:51:49;;;;;;;24.02;14.32;;;3.40;99.90;;;;;;5093859;28;20239;-84
2021/03/03 06:54:18;;;;;;;21.65;15.13;;;3.40;99.90;;;;;;5095335;28;20231;-84
2021/03/03 06:56:47;;;;;;;29.50;16.50;;;3.40;99.90;;;;;;5096912;28;20201;-84
2021/03/03 06:59:15;;;;;;;30.15;16.80;;;3.50;99.90;;;;;;5110724;28;20275;-87
2021/03/03 07:01:43;;;;;;;30.95;16.67;;;3.50;99.90;;;;;;5137916;28;20223;-86
2021/03/03 07:04:24;;;;;;;29.00;16.00;;;3.50;99.90;;;;;;5138475;28;20227;-85
2021/03/03 07:06:52;;;;;;;29.88;17.83;;;3.60;99.90;;;;;;5133740;28;20203;-86
2021/03/03 07:09:20;;;;;;;27.90;17.58;;;3.70;99.90;;;;;;5116391;28;20268;-86
2021/03/03 07:11:47;;;;;;;23.13;14.82;;;3.80;99.90;;;;;;5115046;28;20234;-86
2021/03/03 07:14:15;;;;;;;28.73;15.30;;;3.90;99.90;;;;;;5113558;28;20210;-84
2021/03/03 07:17:08;;;;;;;29.95;17.58;;;4.00;99.90;;;;;;5114840;28;20563;-85
2021/03/03 07:19:37;;;;;;;26.77;15.07;;;4.10;99.90;;;;;;5094061;28;20205;-85
2021/03/03 07:22:06;;;;;;;24.13;15.48;;;4.20;99.90;;;;;;5093311;28;20648;-86
2021/03/03 07:24:33;;;;;;;21.25;15.50;;;4.20;99.90;;;;;;5094115;28;20197;-86
2021/03/03 07:27:03;;;;;;;20.30;14.43;;;4.30;99.90;;;;;;5094927;28;20714;-86
2021/03/03 07:29:30;;;;;;;19.73;14.68;;;4.30;99.90;;;;;;5093135;28;20283;-86
2021/03/03 07:31:57;;;;;;;21.55;15.45;;;4.40;99.90;;;;;;5094498;28;20323;-86
2021/03/03 07:34:25;;;;;;;18.77;13.52;;;4.50;99.90;;;;;;5094746;28;20216;-85
2021/03/03 07:36:52;;;;;;;22.70;14.18;;;4.50;99.90;;;;;;5093969;28;20288;-85
2021/03/03 07:39:23;;;;;;;23.73;15.15;;;4.60;99.90;;;;;;5090695;28;20696;-86
2021/03/03 07:41:50;;;;;;;20.88;15.65;;;4.70;99.90;;;;;;5090539;28;20212;-86
2021/03/03 07:44:20;;;;;;;22.10;14.00;;;4.90;99.90;;;;;;5027282;28;20302;-86
2021/03/03 07:46:48;;;;;;;24.00;14.82;;;4.90;99.90;;;;;;5029126;28;20206;-86
2021/03/03 07:49:22;;;;;;;21.90;13.80;;;5.00;99.90;;;;;;5006633;28;20370;-87
2021/03/03 07:51:49;;;;;;;22.25;14.40;;;5.00;99.90;;;;;;5015710;28;20241;-86
2021/03/03 07:54:15;;;;;;;21.95;14.30;;;5.00;99.90;;;;;;5033530;28;20243;-86
2021/03/03 07:56:43;;;;;;;23.17;14.80;;;5.10;99.90;;;;;;5034026;28;20231;-86
2021/03/03 07:59:11;;;;;;;22.80;14.43;;;5.20;99.90;;;;;;5034713;28;20195;-87
2021/03/03 08:01:38;;;;;;;20.50;15.05;;;5.20;99.90;;;;;;5033038;28;20207;-88
2021/03/03 08:04:06;;;;;;;21.42;14.18;;;5.20;99.90;;;;;;5034258;28;20203;-87
2021/03/03 08:06:37;;;;;;;23.92;15.02;;;5.30;99.90;;;;;;5018580;28;20207;-89
2021/03/03 08:09:20;;;;;;;23.35;15.70;;;5.40;99.90;;;;;;5070875;28;20327;-89
2021/03/03 08:12:01;;;;;;;22.23;14.50;;;5.70;99.90;;;;;;5103063;28;20229;-90
2021/03/03 08:14:37;;;;;;;25.90;16.13;;;5.80;99.90;;;;;;5103291;28;20193;-89
2021/03/03 08:17:08;;;;;;;27.38;17.52;;;5.90;99.90;;;;;;5102723;28;20213;-84
2021/03/03 08:20:12;;;;;;;22.70;18.88;;;6.00;99.90;;;;;;5120022;28;20211;-91
2021/03/03 08:22:52;;;;;;;25.90;20.20;;;6.20;99.90;;;;;;5127100;28;20621;-89
2021/03/03 08:25:47;;;;;;;29.53;19.03;;;6.30;99.90;;;;;;5129119;28;20468;-92
2021/03/03 08:28:27;;;;;;;31.17;17.70;;;6.50;99.90;;;;;;5127835;28;20445;-87
2021/03/03 08:31:36;;;;;;;21.93;16.10;;;6.70;99.90;;;;;;5119750;28;20525;-85
2021/03/03 08:34:08;;;;;;;21.43;15.30;;;6.90;99.90;;;;;;5114574;28;20533;-82
2021/03/03 08:37:02;;;;;;;23.43;16.23;;;6.90;99.90;;;;;;5119311;28;20504;-84
2021/03/03 08:39:34;;;;;;;24.70;17.23;;;7.10;99.90;;;;;;5117812;28;20470;-84
2021/03/03 08:42:03;;;;;;;21.80;16.40;;;7.10;99.90;;;;;;5117318;28;20445;-84
2021/03/03 08:44:30;;;;;;;27.93;15.63;;;7.30;99.90;;;;;;5113068;28;20510;-86
2021/03/03 08:46:57;;;;;;;23.63;14.03;;;7.40;99.90;;;;;;5116970;28;20442;-85
2021/03/03 08:49:31;;;;;;;24.50;14.27;;;7.50;99.90;;;;;;5114130;28;20485;-84
2021/03/03 08:52:12;;;;;;;22.93;14.30;;;7.60;99.90;;;;;;5117430;28;20540;-85
2021/03/03 08:54:48;;;;;;;20.53;14.30;;;7.50;99.90;;;;;;5118023;28;20496;-85
2021/03/03 08:57:31;;;;;;;19.30;13.77;;;7.30;99.90;;;;;;5117375;28;20929;-84
2021/03/03 08:59:58;;;;;;;21.87;14.77;;;7.50;99.90;;;;;;5117276;28;20556;-86
2021/03/03 09:02:35;;;;;;;20.17;13.53;;;7.80;99.90;;;;;;5116541;28;20477;-85
2021/03/03 09:05:10;;;;;;;21.20;15.03;;;7.90;99.90;;;;;;5116991;28;20522;-84
2021/03/03 09:07:38;;;;;;;24.17;16.33;;;8.00;99.90;;;;;;5116123;28;21028;-84
2021/03/03 09:10:14;;;;;;;22.70;15.67;;;8.10;99.90;;;;;;5116422;28;20798;-84
2021/03/03 09:12:42;;;;;;;24.93;15.20;;;7.90;99.90;;;;;;5115052;28;20902;-85
2021/03/03 09:15:11;;;;;;;21.13;14.60;;;7.90;99.90;;;;;;5115685;28;20537;-85
2021/03/03 09:17:39;;;;;;;17.10;14.20;;;8.00;99.90;;;;;;5111898;28;20523;-85
2021/03/03 09:20:10;;;;;;;16.07;13.73;;;8.10;99.90;;;;;;5112071;28;20542;-86
2021/03/03 09:22:38;;;;;;;20.63;13.97;;;8.10;99.90;;;;;;5116301;28;20541;-84
2021/03/03 09:25:11;;;;;;;20.67;14.70;;;8.40;99.90;;;;;;5113866;28;20446;-85
2021/03/03 09:27:39;;;;;;;25.33;16.47;;;8.60;99.90;;;;;;5112407;28;20891;-86
2021/03/03 09:30:07;;;;;;;18.67;14.37;;;8.70;99.90;;;;;;5115729;28;20446;-85
2021/03/03 09:32:34;;;;;;;22.40;15.20;;;8.90;99.90;;;;;;5115931;28;20529;-86
2021/03/03 09:35:03;;;;;;;25.13;14.90;;;9.10;99.90;;;;;;5115834;28;20806;-86
2021/03/03 09:37:38;;;;;;;20.03;14.10;;;9.20;99.90;;;;;;5115541;28;20607;-84
2021/03/03 09:40:06;;;;;;;26.27;15.13;;;9.40;99.90;;;;;;5115668;28;20477;-85
2021/03/03 09:42:38;;;;;;;19.43;14.90;;;9.50;99.90;;;;;;5114354;28;20529;-86
2021/03/03 09:45:07;;;;;;;22.40;14.60;;;9.50;99.90;;;;;;5112325;28;20446;-85
2021/03/03 09:47:35;;;;;;;21.17;15.73;;;9.40;99.90;;;;;;5115474;28;20549;-84
2021/03/03 09:50:05;;;;;;;21.93;16.30;;;9.60;99.90;;;;;;5115519;28;20941;-86
2021/03/03 09:52:38;;;;;;;22.03;16.67;;;9.60;99.90;;;;;;5115963;28;21069;-85
2021/03/03 09:55:09;;;;;;;23.67;15.57;;;9.60;99.90;;;;;;5116632;28;20446;-86
2021/03/03 09:57:36;;;;;;;20.13;16.50;;;9.60;99.90;;;;;;5115197;28;20446;-84
2021/03/03 10:00:06;;;;;;;21.33;17.23;;;9.80;99.90;;;;;;5114731;28;20550;-85
2021/03/03 10:02:33;;;;;;;20.20;17.13;;;9.70;99.90;;;;;;5115737;28;20536;-87
2021/03/03 10:05:01;;;;;;;20.87;16.00;;;9.80;99.90;;;;;;5115201;28;20450;-85
2021/03/03 10:07:28;;;;;;;26.73;16.23;;;10.00;99.90;;;;;;5116388;28;21165;-88
2021/03/03 10:09:56;;;;;;;26.03;16.67;;;9.90;99.90;;;;;;5116248;28;21012;-87
2021/03/03 10:12:24;;;;;;;25.33;17.93;;;10.00;99.90;;;;;;5113623;28;20593;-86
2021/03/03 10:15:09;;;;;;;21.03;14.97;;;10.20;99.90;;;;;;5114790;28;20768;-87
2021/03/03 10:17:40;;;;;;;20.73;14.07;;;10.30;99.90;;;;;;5079362;28;20792;-85
2021/03/03 10:20:12;;;;;;;25.07;16.97;;;10.40;99.90;;;;;;5108625;28;20593;-85
2021/03/03 10:22:44;;;;;;;24.90;16.27;;;10.40;99.90;;;;;;5116545;28;20446;-85
2021/03/03 10:25:13;;;;;;;21.50;17.67;;;10.50;99.60;;;;;;5114779;28;20534;-84
2021/03/03 10:27:42;;;;;;;22.73;15.40;;;10.70;99.50;;;;;;5113489;28;20501;-85
2021/03/03 10:30:30;;;;;;;19.60;16.23;;;10.80;99.90;;;;;;5114607;28;20444;-86
2021/03/03 10:32:56;;;;;;;23.70;16.00;;;10.80;99.40;;;;;;5108488;28;20502;-87
2021/03/03 10:35:23;;;;;;;20.47;16.57;;;10.90;99.20;;;;;;5114811;28;20538;-87
2021/03/03 10:37:51;;;;;;;23.47;17.63;;;10.80;99.50;;;;;;5115025;28;20534;-86
2021/03/03 10:40:20;;;;;;;19.13;15.00;;;11.00;99.10;;;;;;5114657;28;20880;-87
2021/03/03 10:42:47;;;;;;;20.43;15.40;;;11.10;98.50;;;;;;5114104;28;20527;-88
2021/03/03 10:45:21;;;;;;;18.87;14.23;;;11.40;97.80;;;;;;5115119;28;20496;-89
2021/03/03 10:47:49;;;;;;;18.30;13.90;;;11.50;97.40;;;;;;5115867;28;20483;-88
2021/03/03 10:50:18;;;;;;;18.67;14.57;;;11.40;97.30;;;;;;5113915;28;20465;-90
2021/03/03 10:52:55;;;;;;;17.17;13.20;;;11.60;96.80;;;;;;5115277;28;20530;-88
2021/03/03 10:55:23;;;;;;;20.80;14.57;;;11.90;96.80;;;;;;5079719;28;20536;-87
2021/03/03 10:58:08;;;;;;;23.10;14.63;;;12.00;96.00;;;;;;5111262;28;20446;-87
2021/03/03 11:01:00;;;;;;;21.67;13.60;;;12.30;95.40;;;;;;5113614;28;20470;-87
2021/03/03 11:03:28;;;;;;;17.07;13.47;;;12.20;95.50;;;;;;5111571;28;20548;-87
2021/03/03 11:05:56;;;;;;;17.63;13.47;;;12.30;95.50;;;;;;5112644;28;20520;-84
2021/03/03 11:08:24;;;;;;;16.00;13.17;;;12.60;94.70;;;;;;5107979;28;20450;-79
2021/03/03 11:11:04;;;;;;;20.80;14.47;;;12.70;93.80;;;;;;5113805;28;20515;-85
2021/03/03 11:13:33;;;;;;;18.60;13.17;;;12.70;94.50;;;;;;5112334;28;20457;-82
2021/03/03 11:15:59;;;;;;;19.17;12.90;;;12.60;93.40;;;;;;5113806;28;20454;-84
2021/03/03 11:18:25;;;;;;;17.40;12.13;;;13.00;93.30;;;;;;5113521;28;20481;-84
2021/03/03 11:20:53;;;;;;;16.80;12.50;;;13.00;93.50;;;;;;5109389;28;20481;-83
2021/03/03 11:23:20;;;;;;;22.10;13.70;;;12.90;93.40;;;;;;5094998;28;20504;-83
2021/03/03 11:25:49;;;;;;;22.27;13.40;;;12.80;93.20;;;;;;5103956;28;20933;-85
2021/03/03 11:28:16;;;;;;;19.90;12.63;;;13.00;93.10;;;;;;5092417;28;20442;-84
2021/03/03 11:30:43;;;;;;;16.70;11.93;;;13.00;92.20;;;;;;5094019;28;20526;-83
2021/03/03 11:33:09;;;;;;;22.77;13.33;;;13.00;92.30;;;;;;5093632;28;21088;-85
2021/03/03 11:35:36;;;;;;;17.57;12.77;;;13.00;92.70;;;;;;5093648;28;20538;-85
2021/03/03 11:38:03;;;;;;;15.33;11.90;;;12.90;92.30;;;;;;5091013;28;20938;-82
2021/03/03 11:40:29;;;;;;;21.03;13.97;;;13.10;93.30;;;;;;5093127;28;20590;-82
2021/03/03 11:42:56;;;;;;;18.63;12.87;;;13.20;92.50;;;;;;5092880;28;20541;-83
2021/03/03 11:45:23;;;;;;;16.20;11.97;;;13.30;92.00;;;;;;5094456;28;20435;-82
2021/03/03 11:47:49;;;;;;;19.03;11.77;;;13.50;91.50;;;;;;5095847;28;20517;-83
2021/03/03 11:50:16;;;;;;;18.57;12.63;;;13.50;91.70;;;;;;5106094;28;20554;-82
2021/03/03 11:52:42;;;;;;;15.67;12.47;;;13.40;92.30;;;;;;5118486;28;20481;-82
2021/03/03 11:55:09;;;;;;;20.97;13.10;;;13.40;92.10;;;;;;5126036;28;20442;-82
2021/03/03 11:57:36;;;;;;;14.07;10.93;;;13.70;92.20;;;;;;5115919;28;20454;-80
2021/03/03 12:00:05;;;;;;;16.80;12.60;;;13.80;91.90;;;;;;5132674;28;20484;-81
2021/03/03 12:02:32;;;;;;;17.73;11.07;;;13.70;91.10;;;;;;5123602;28;20480;-82
2021/03/03 12:04:58;;;;;;;16.00;11.90;;;13.90;91.40;;;;;;5114430;28;20552;-81
2021/03/03 12:07:24;;;;;;;16.93;12.37;;;13.90;91.00;;;;;;5117104;28;20572;-83
2021/03/03 12:09:51;;;;;;;15.03;11.00;;;14.10;90.60;;;;;;5130920;28;20484;-81
2021/03/03 12:12:17;;;;;;;17.30;14.33;;;14.20;90.60;;;;;;5140173;28;20515;-81
2021/03/03 12:14:44;;;;;;;15.37;11.50;;;14.30;91.20;;;;;;5141412;28;20461;-81
2021/03/03 12:17:10;;;;;;;17.27;11.80;;;14.20;90.50;;;;;;5129623;28;20478;-79
2021/03/03 12:19:40;;;;;;;14.93;11.23;;;14.20;90.00;;;;;;5116874;28;20549;-81
2021/03/03 12:22:06;;;;;;;18.83;12.13;;;14.10;90.30;;;;;;5113261;28;20462;-82
2021/03/03 12:24:32;;;;;;;17.27;11.70;;;14.10;89.90;;;;;;5117186;28;20546;-82
2021/03/03 12:26:59;;;;;;;17.77;12.30;;;14.20;90.00;;;;;;5117318;28;20913;-82
2021/03/03 12:29:26;;;;;;;20.50;11.90;;;14.10;91.20;;;;;;5116289;28;20450;-82
2021/03/03 12:31:52;;;;;;;15.03;13.20;;;14.30;90.90;;;;;;5117613;28;20563;-83
2021/03/03 12:34:18;;;;;;;16.03;11.87;;;14.00;90.60;;;;;;5116697;28;20460;-83
2021/03/03 12:36:46;;;;;;;16.60;12.83;;;14.00;91.00;;;;;;5117341;28;20534;-81
2021/03/03 12:39:12;;;;;;;19.00;12.57;;;14.00;90.70;;;;;;5116788;28;20450;-82
2021/03/03 12:41:38;;;;;;;14.30;11.93;;;14.00;90.70;;;;;;5116511;28;20485;-81
2021/03/03 12:44:05;;;;;;;15.17;12.00;;;14.20;90.70;;;;;;5115217;28;20529;-81